sensor_id;sensor_type;location;lat;lon;timestamp;P1;durP1;ratioP1;P2;durP2;ratioP2
70301;SDS011;57706;56.326;43.882;2023-12-29T00:01:58;2.42;;;1.63;;
70301;SDS011;57706;56.326;43.882;2023-12-29T00:04:25;2.80;;;1.45;;
70301;SDS011;57706;56.326;43.882;2023-12-29T00:06:51;3.47;;;2.13;;
70301;SDS011;57706;56.326;43.882;2023-12-29T00:09:17;5.68;;;2.00;;
70301;SDS011;57706;56.326;43.882;2023-12-29T00:11:54;4.45;;;2.70;;
70301;SDS011;57706;56.326;43.882;2023-12-29T00:14:20;3.25;;;1.88;;
70301;SDS011;57706;56.326;43.882;2023-12-29T00:16:46;4.63;;;2.20;;
70301;SDS011;57706;56.326;43.882;2023-12-29T00:21:38;3.05;;;1.55;;
70301;SDS011;57706;56.326;43.882;2023-12-29T00:24:04;3.47;;;1.67;;
70301;SDS011;57706;56.326;43.882;2023-12-29T00:26:30;3.50;;;1.83;;
70301;SDS011;57706;56.326;43.882;2023-12-29T00:28:57;3.08;;;2.00;;
70301;SDS011;57706;56.326;43.882;2023-12-29T00:31:23;5.47;;;2.30;;
70301;SDS011;57706;56.326;43.882;2023-12-29T00:33:50;3.35;;;2.03;;
70301;SDS011;57706;56.326;43.882;2023-12-29T00:36:19;3.75;;;2.13;;
70301;SDS011;57706;56.326;43.882;2023-12-29T00:38:45;5.75;;;2.00;;
70301;SDS011;57706;56.326;43.882;2023-12-29T00:41:11;2.83;;;1.85;;
70301;SDS011;57706;56.326;43.882;2023-12-29T00:43:37;4.03;;;2.38;;
70301;SDS011;57706;56.326;43.882;2023-12-29T00:46:03;5.07;;;2.50;;
70301;SDS011;57706;56.326;43.882;2023-12-29T00:48:30;4.93;;;2.90;;
70301;SDS011;57706;56.326;43.882;2023-12-29T00:51:03;4.18;;;2.88;;
70301;SDS011;57706;56.326;43.882;2023-12-29T00:53:30;4.28;;;2.28;;
70301;SDS011;57706;56.326;43.882;2023-12-29T00:55:59;7.35;;;2.95;;
70301;SDS011;57706;56.326;43.882;2023-12-29T00:58:25;4.85;;;2.60;;
70301;SDS011;57706;56.326;43.882;2023-12-29T01:00:52;5.50;;;2.78;;
70301;SDS011;57706;56.326;43.882;2023-12-29T01:03:19;7.32;;;3.22;;
70301;SDS011;57706;56.326;43.882;2023-12-29T01:05:45;8.05;;;3.10;;
70301;SDS011;57706;56.326;43.882;2023-12-29T01:08:12;8.18;;;3.70;;
70301;SDS011;57706;56.326;43.882;2023-12-29T01:10:37;9.68;;;3.05;;
70301;SDS011;57706;56.326;43.882;2023-12-29T01:13:03;4.53;;;2.67;;
70301;SDS011;57706;56.326;43.882;2023-12-29T01:15:29;8.43;;;3.00;;
70301;SDS011;57706;56.326;43.882;2023-12-29T01:17:55;10.07;;;3.60;;
70301;SDS011;57706;56.326;43.882;2023-12-29T01:20:21;5.60;;;2.90;;
70301;SDS011;57706;56.326;43.882;2023-12-29T01:22:48;6.25;;;3.15;;
70301;SDS011;57706;56.326;43.882;2023-12-29T01:25:14;9.00;;;3.35;;
70301;SDS011;57706;56.326;43.882;2023-12-29T01:27:40;7.25;;;3.05;;
70301;SDS011;57706;56.326;43.882;2023-12-29T01:30:06;6.55;;;2.83;;
70301;SDS011;57706;56.326;43.882;2023-12-29T01:32:32;4.80;;;2.38;;
70301;SDS011;57706;56.326;43.882;2023-12-29T01:34:58;4.18;;;2.42;;
70301;SDS011;57706;56.326;43.882;2023-12-29T01:37:23;5.93;;;3.03;;
70301;SDS011;57706;56.326;43.882;2023-12-29T01:39:49;7.03;;;3.90;;
70301;SDS011;57706;56.326;43.882;2023-12-29T01:42:15;5.93;;;3.35;;
70301;SDS011;57706;56.326;43.882;2023-12-29T01:44:41;6.00;;;3.40;;
70301;SDS011;57706;56.326;43.882;2023-12-29T01:47:11;8.27;;;3.53;;
70301;SDS011;57706;56.326;43.882;2023-12-29T01:49:42;6.22;;;3.47;;
70301;SDS011;57706;56.326;43.882;2023-12-29T01:52:12;5.90;;;3.58;;
70301;SDS011;57706;56.326;43.882;2023-12-29T01:54:39;8.85;;;3.20;;
70301;SDS011;57706;56.326;43.882;2023-12-29T01:57:08;7.10;;;3.25;;
70301;SDS011;57706;56.326;43.882;2023-12-29T01:59:34;10.20;;;3.42;;
70301;SDS011;57706;56.326;43.882;2023-12-29T02:02:01;6.55;;;3.55;;
70301;SDS011;57706;56.326;43.882;2023-12-29T02:04:27;7.57;;;3.92;;
70301;SDS011;57706;56.326;43.882;2023-12-29T02:06:54;9.80;;;3.88;;
70301;SDS011;57706;56.326;43.882;2023-12-29T02:09:20;8.82;;;3.70;;
70301;SDS011;57706;56.326;43.882;2023-12-29T02:11:47;7.25;;;3.40;;
70301;SDS011;57706;56.326;43.882;2023-12-29T02:14:16;8.93;;;4.05;;
70301;SDS011;57706;56.326;43.882;2023-12-29T02:19:42;7.10;;;2.92;;
70301;SDS011;57706;56.326;43.882;2023-12-29T02:22:10;8.65;;;3.20;;
70301;SDS011;57706;56.326;43.882;2023-12-29T02:24:37;6.32;;;3.47;;
70301;SDS011;57706;56.326;43.882;2023-12-29T02:32:42;7.50;;;3.13;;
70301;SDS011;57706;56.326;43.882;2023-12-29T02:35:10;8.15;;;4.00;;
70301;SDS011;57706;56.326;43.882;2023-12-29T02:37:39;9.32;;;3.50;;
70301;SDS011;57706;56.326;43.882;2023-12-29T02:40:09;7.63;;;3.60;;
70301;SDS011;57706;56.326;43.882;2023-12-29T02:42:36;7.63;;;3.63;;
70301;SDS011;57706;56.326;43.882;2023-12-29T02:45:02;8.13;;;3.80;;
70301;SDS011;57706;56.326;43.882;2023-12-29T02:47:29;6.57;;;3.28;;
70301;SDS011;57706;56.326;43.882;2023-12-29T02:49:55;8.93;;;3.80;;
70301;SDS011;57706;56.326;43.882;2023-12-29T02:52:21;8.43;;;3.67;;
70301;SDS011;57706;56.326;43.882;2023-12-29T02:54:47;5.88;;;3.47;;
70301;SDS011;57706;56.326;43.882;2023-12-29T02:57:13;7.18;;;3.70;;
70301;SDS011;57706;56.326;43.882;2023-12-29T03:02:05;7.90;;;4.07;;
70301;SDS011;57706;56.326;43.882;2023-12-29T03:04:31;6.90;;;3.88;;
70301;SDS011;57706;56.326;43.882;2023-12-29T03:06:57;7.15;;;3.42;;
70301;SDS011;57706;56.326;43.882;2023-12-29T03:09:22;8.02;;;3.40;;
70301;SDS011;57706;56.326;43.882;2023-12-29T03:14:16;10.88;;;4.47;;
70301;SDS011;57706;56.326;43.882;2023-12-29T03:16:42;11.52;;;4.53;;
70301;SDS011;57706;56.326;43.882;2023-12-29T03:19:08;6.40;;;3.42;;
70301;SDS011;57706;56.326;43.882;2023-12-29T03:21:34;9.38;;;4.65;;
70301;SDS011;57706;56.326;43.882;2023-12-29T03:23:59;10.05;;;4.55;;
70301;SDS011;57706;56.326;43.882;2023-12-29T03:26:25;8.90;;;4.22;;
70301;SDS011;57706;56.326;43.882;2023-12-29T03:28:51;10.85;;;4.03;;
70301;SDS011;57706;56.326;43.882;2023-12-29T03:31:17;13.82;;;4.78;;
70301;SDS011;57706;56.326;43.882;2023-12-29T03:33:43;8.25;;;3.70;;
70301;SDS011;57706;56.326;43.882;2023-12-29T03:38:34;9.85;;;3.72;;
70301;SDS011;57706;56.326;43.882;2023-12-29T03:41:02;12.07;;;4.45;;
70301;SDS011;57706;56.326;43.882;2023-12-29T03:43:28;11.40;;;4.90;;
70301;SDS011;57706;56.326;43.882;2023-12-29T03:48:20;8.38;;;3.72;;
70301;SDS011;57706;56.326;43.882;2023-12-29T03:53:11;12.60;;;4.20;;
70301;SDS011;57706;56.326;43.882;2023-12-29T03:55:37;6.70;;;3.28;;
70301;SDS011;57706;56.326;43.882;2023-12-29T03:58:03;12.43;;;4.03;;
70301;SDS011;57706;56.326;43.882;2023-12-29T04:02:55;7.07;;;3.20;;
70301;SDS011;57706;56.326;43.882;2023-12-29T04:05:20;8.30;;;3.65;;
70301;SDS011;57706;56.326;43.882;2023-12-29T04:10:12;4.82;;;2.25;;
70301;SDS011;57706;56.326;43.882;2023-12-29T04:12:37;6.53;;;3.20;;
70301;SDS011;57706;56.326;43.882;2023-12-29T04:15:03;8.45;;;4.15;;
70301;SDS011;57706;56.326;43.882;2023-12-29T04:17:30;6.70;;;3.30;;
70301;SDS011;57706;56.326;43.882;2023-12-29T04:22:21;7.78;;;3.13;;
70301;SDS011;57706;56.326;43.882;2023-12-29T04:24:47;5.32;;;2.75;;
70301;SDS011;57706;56.326;43.882;2023-12-29T04:27:14;8.05;;;3.35;;
70301;SDS011;57706;56.326;43.882;2023-12-29T04:29:40;6.85;;;3.55;;
70301;SDS011;57706;56.326;43.882;2023-12-29T04:32:06;8.35;;;3.63;;
70301;SDS011;57706;56.326;43.882;2023-12-29T04:34:32;8.35;;;4.63;;
70301;SDS011;57706;56.326;43.882;2023-12-29T04:36:58;8.48;;;4.35;;
70301;SDS011;57706;56.326;43.882;2023-12-29T04:39:25;8.60;;;3.70;;
70301;SDS011;57706;56.326;43.882;2023-12-29T04:41:51;9.45;;;4.68;;
70301;SDS011;57706;56.326;43.882;2023-12-29T04:44:17;7.25;;;4.13;;
70301;SDS011;57706;56.326;43.882;2023-12-29T04:46:43;9.30;;;3.90;;
70301;SDS011;57706;56.326;43.882;2023-12-29T04:49:08;6.20;;;3.17;;
70301;SDS011;57706;56.326;43.882;2023-12-29T04:51:34;7.18;;;3.40;;
70301;SDS011;57706;56.326;43.882;2023-12-29T04:54:00;10.68;;;3.13;;
70301;SDS011;57706;56.326;43.882;2023-12-29T04:56:27;5.68;;;3.20;;
70301;SDS011;57706;56.326;43.882;2023-12-29T04:58:53;5.70;;;3.22;;
70301;SDS011;57706;56.326;43.882;2023-12-29T05:01:19;6.90;;;3.25;;
70301;SDS011;57706;56.326;43.882;2023-12-29T05:03:44;6.85;;;3.47;;
70301;SDS011;57706;56.326;43.882;2023-12-29T05:06:10;4.57;;;2.30;;
70301;SDS011;57706;56.326;43.882;2023-12-29T05:08:36;5.50;;;3.10;;
70301;SDS011;57706;56.326;43.882;2023-12-29T05:13:28;4.60;;;2.60;;
70301;SDS011;57706;56.326;43.882;2023-12-29T05:15:54;6.45;;;2.55;;
70301;SDS011;57706;56.326;43.882;2023-12-29T05:18:20;6.75;;;2.60;;
70301;SDS011;57706;56.326;43.882;2023-12-29T05:20:46;7.13;;;3.47;;
70301;SDS011;57706;56.326;43.882;2023-12-29T05:23:12;7.07;;;3.08;;
70301;SDS011;57706;56.326;43.882;2023-12-29T05:25:38;4.20;;;2.60;;
70301;SDS011;57706;56.326;43.882;2023-12-29T05:28:04;4.13;;;2.28;;
70301;SDS011;57706;56.326;43.882;2023-12-29T05:30:30;6.38;;;3.67;;
70301;SDS011;57706;56.326;43.882;2023-12-29T05:32:57;8.45;;;3.13;;
70301;SDS011;57706;56.326;43.882;2023-12-29T05:35:23;5.60;;;3.13;;
70301;SDS011;57706;56.326;43.882;2023-12-29T05:37:49;6.03;;;3.42;;
70301;SDS011;57706;56.326;43.882;2023-12-29T05:40:15;6.85;;;3.75;;
70301;SDS011;57706;56.326;43.882;2023-12-29T05:42:41;6.05;;;3.45;;
70301;SDS011;57706;56.326;43.882;2023-12-29T05:45:07;8.25;;;3.20;;
70301;SDS011;57706;56.326;43.882;2023-12-29T05:47:33;7.07;;;3.60;;
70301;SDS011;57706;56.326;43.882;2023-12-29T05:49:59;6.38;;;3.22;;
70301;SDS011;57706;56.326;43.882;2023-12-29T05:52:25;5.10;;;2.58;;
70301;SDS011;57706;56.326;43.882;2023-12-29T05:54:50;7.80;;;2.95;;
70301;SDS011;57706;56.326;43.882;2023-12-29T05:57:16;6.40;;;2.70;;
70301;SDS011;57706;56.326;43.882;2023-12-29T05:59:42;5.78;;;2.90;;
70301;SDS011;57706;56.326;43.882;2023-12-29T06:02:08;15.43;;;6.78;;
70301;SDS011;57706;56.326;43.882;2023-12-29T06:04:34;6.70;;;3.28;;
70301;SDS011;57706;56.326;43.882;2023-12-29T06:06:59;4.22;;;2.55;;
70301;SDS011;57706;56.326;43.882;2023-12-29T06:09:25;5.90;;;3.13;;
70301;SDS011;57706;56.326;43.882;2023-12-29T06:11:51;6.68;;;3.15;;
70301;SDS011;57706;56.326;43.882;2023-12-29T06:14:17;6.63;;;3.08;;
70301;SDS011;57706;56.326;43.882;2023-12-29T06:19:08;6.20;;;3.30;;
70301;SDS011;57706;56.326;43.882;2023-12-29T06:21:40;8.75;;;3.38;;
70301;SDS011;57706;56.326;43.882;2023-12-29T06:24:08;7.95;;;3.60;;
70301;SDS011;57706;56.326;43.882;2023-12-29T06:26:34;6.85;;;3.22;;
70301;SDS011;57706;56.326;43.882;2023-12-29T06:29:00;11.27;;;3.78;;
70301;SDS011;57706;56.326;43.882;2023-12-29T06:31:26;5.97;;;2.97;;
70301;SDS011;57706;56.326;43.882;2023-12-29T06:33:52;6.70;;;3.47;;
70301;SDS011;57706;56.326;43.882;2023-12-29T06:36:17;12.90;;;4.15;;
70301;SDS011;57706;56.326;43.882;2023-12-29T06:38:43;9.77;;;5.25;;
70301;SDS011;57706;56.326;43.882;2023-12-29T06:41:13;10.25;;;3.92;;
70301;SDS011;57706;56.326;43.882;2023-12-29T06:43:39;8.90;;;4.57;;
70301;SDS011;57706;56.326;43.882;2023-12-29T06:46:05;11.05;;;4.47;;
70301;SDS011;57706;56.326;43.882;2023-12-29T06:48:31;11.27;;;4.35;;
70301;SDS011;57706;56.326;43.882;2023-12-29T06:50:57;5.90;;;3.15;;
70301;SDS011;57706;56.326;43.882;2023-12-29T06:53:23;7.82;;;3.55;;
70301;SDS011;57706;56.326;43.882;2023-12-29T06:55:48;9.68;;;3.90;;
70301;SDS011;57706;56.326;43.882;2023-12-29T06:58:14;10.98;;;4.97;;
70301;SDS011;57706;56.326;43.882;2023-12-29T07:00:40;11.85;;;4.03;;
70301;SDS011;57706;56.326;43.882;2023-12-29T07:03:06;11.68;;;4.10;;
70301;SDS011;57706;56.326;43.882;2023-12-29T07:05:32;10.43;;;4.65;;
70301;SDS011;57706;56.326;43.882;2023-12-29T07:07:58;10.65;;;3.50;;
70301;SDS011;57706;56.326;43.882;2023-12-29T07:10:23;10.02;;;3.88;;
70301;SDS011;57706;56.326;43.882;2023-12-29T07:12:49;9.88;;;4.07;;
70301;SDS011;57706;56.326;43.882;2023-12-29T07:15:15;20.42;;;7.53;;
70301;SDS011;57706;56.326;43.882;2023-12-29T07:17:41;8.50;;;3.53;;
70301;SDS011;57706;56.326;43.882;2023-12-29T07:20:07;7.38;;;3.60;;
70301;SDS011;57706;56.326;43.882;2023-12-29T07:22:33;8.82;;;3.50;;
70301;SDS011;57706;56.326;43.882;2023-12-29T07:24:59;8.85;;;3.83;;
70301;SDS011;57706;56.326;43.882;2023-12-29T07:27:26;8.80;;;4.72;;
70301;SDS011;57706;56.326;43.882;2023-12-29T07:29:51;10.15;;;5.35;;
70301;SDS011;57706;56.326;43.882;2023-12-29T07:32:17;9.45;;;4.03;;
70301;SDS011;57706;56.326;43.882;2023-12-29T07:34:43;11.70;;;4.50;;
70301;SDS011;57706;56.326;43.882;2023-12-29T07:37:09;7.97;;;3.53;;
70301;SDS011;57706;56.326;43.882;2023-12-29T07:39:38;5.75;;;3.33;;
70301;SDS011;57706;56.326;43.882;2023-12-29T07:42:04;6.85;;;3.28;;
70301;SDS011;57706;56.326;43.882;2023-12-29T07:44:31;6.30;;;3.08;;
70301;SDS011;57706;56.326;43.882;2023-12-29T07:46:57;7.43;;;3.88;;
70301;SDS011;57706;56.326;43.882;2023-12-29T07:49:23;7.07;;;3.40;;
70301;SDS011;57706;56.326;43.882;2023-12-29T07:51:48;6.07;;;2.72;;
70301;SDS011;57706;56.326;43.882;2023-12-29T07:54:14;6.80;;;3.45;;
70301;SDS011;57706;56.326;43.882;2023-12-29T07:56:41;6.00;;;3.10;;
70301;SDS011;57706;56.326;43.882;2023-12-29T07:59:06;6.53;;;3.20;;
70301;SDS011;57706;56.326;43.882;2023-12-29T08:01:32;7.72;;;3.47;;
70301;SDS011;57706;56.326;43.882;2023-12-29T08:03:58;6.55;;;3.25;;
70301;SDS011;57706;56.326;43.882;2023-12-29T08:06:24;8.15;;;3.80;;
70301;SDS011;57706;56.326;43.882;2023-12-29T08:08:50;7.35;;;4.22;;
70301;SDS011;57706;56.326;43.882;2023-12-29T08:11:16;7.45;;;3.47;;
70301;SDS011;57706;56.326;43.882;2023-12-29T08:13:43;7.18;;;3.40;;
70301;SDS011;57706;56.326;43.882;2023-12-29T08:16:10;6.93;;;3.20;;
70301;SDS011;57706;56.326;43.882;2023-12-29T08:18:36;5.93;;;3.25;;
70301;SDS011;57706;56.326;43.882;2023-12-29T08:21:02;6.88;;;3.63;;
70301;SDS011;57706;56.326;43.882;2023-12-29T08:23:28;7.18;;;2.85;;
70301;SDS011;57706;56.326;43.882;2023-12-29T08:25:55;5.97;;;2.88;;
70301;SDS011;57706;56.326;43.882;2023-12-29T08:28:22;6.82;;;3.10;;
70301;SDS011;57706;56.326;43.882;2023-12-29T08:30:48;5.80;;;2.92;;
70301;SDS011;57706;56.326;43.882;2023-12-29T08:33:13;5.57;;;3.17;;
70301;SDS011;57706;56.326;43.882;2023-12-29T08:35:40;6.00;;;2.70;;
70301;SDS011;57706;56.326;43.882;2023-12-29T08:38:06;7.82;;;2.90;;
70301;SDS011;57706;56.326;43.882;2023-12-29T08:40:32;8.25;;;3.42;;
70301;SDS011;57706;56.326;43.882;2023-12-29T08:42:58;9.55;;;2.78;;
70301;SDS011;57706;56.326;43.882;2023-12-29T08:45:24;5.18;;;2.50;;
70301;SDS011;57706;56.326;43.882;2023-12-29T08:47:49;5.20;;;2.85;;
70301;SDS011;57706;56.326;43.882;2023-12-29T08:50:15;6.30;;;2.97;;
70301;SDS011;57706;56.326;43.882;2023-12-29T08:52:42;7.18;;;2.80;;
70301;SDS011;57706;56.326;43.882;2023-12-29T08:55:08;5.60;;;2.30;;
70301;SDS011;57706;56.326;43.882;2023-12-29T08:57:35;6.82;;;2.63;;
70301;SDS011;57706;56.326;43.882;2023-12-29T09:00:01;3.03;;;1.80;;
70301;SDS011;57706;56.326;43.882;2023-12-29T09:02:27;4.22;;;2.35;;
70301;SDS011;57706;56.326;43.882;2023-12-29T09:04:53;5.38;;;2.60;;
70301;SDS011;57706;56.326;43.882;2023-12-29T09:07:18;3.55;;;1.95;;
70301;SDS011;57706;56.326;43.882;2023-12-29T09:09:44;5.55;;;2.63;;
70301;SDS011;57706;56.326;43.882;2023-12-29T09:12:10;4.35;;;2.38;;
70301;SDS011;57706;56.326;43.882;2023-12-29T09:14:36;3.90;;;2.35;;
70301;SDS011;57706;56.326;43.882;2023-12-29T09:17:02;5.45;;;2.60;;
70301;SDS011;57706;56.326;43.882;2023-12-29T09:19:28;5.90;;;2.60;;
70301;SDS011;57706;56.326;43.882;2023-12-29T09:21:54;5.95;;;3.10;;
70301;SDS011;57706;56.326;43.882;2023-12-29T09:24:20;4.45;;;2.53;;
70301;SDS011;57706;56.326;43.882;2023-12-29T09:26:45;8.02;;;3.15;;
70301;SDS011;57706;56.326;43.882;2023-12-29T09:29:11;5.78;;;2.70;;
70301;SDS011;57706;56.326;43.882;2023-12-29T09:31:37;5.78;;;2.72;;
70301;SDS011;57706;56.326;43.882;2023-12-29T09:34:03;8.75;;;2.80;;
70301;SDS011;57706;56.326;43.882;2023-12-29T09:36:29;6.75;;;3.20;;
70301;SDS011;57706;56.326;43.882;2023-12-29T09:38:55;8.45;;;3.08;;
70301;SDS011;57706;56.326;43.882;2023-12-29T09:41:21;7.22;;;2.97;;
70301;SDS011;57706;56.326;43.882;2023-12-29T09:43:49;9.23;;;3.47;;
70301;SDS011;57706;56.326;43.882;2023-12-29T09:46:19;9.65;;;4.07;;
70301;SDS011;57706;56.326;43.882;2023-12-29T09:48:47;7.13;;;3.20;;
70301;SDS011;57706;56.326;43.882;2023-12-29T09:51:16;6.93;;;2.72;;
70301;SDS011;57706;56.326;43.882;2023-12-29T09:53:47;4.78;;;2.80;;
70301;SDS011;57706;56.326;43.882;2023-12-29T09:56:13;8.38;;;3.35;;
70301;SDS011;57706;56.326;43.882;2023-12-29T09:58:39;7.40;;;2.72;;
70301;SDS011;57706;56.326;43.882;2023-12-29T10:01:06;8.68;;;3.67;;
70301;SDS011;57706;56.326;43.882;2023-12-29T10:03:32;5.15;;;3.05;;
70301;SDS011;57706;56.326;43.882;2023-12-29T10:05:59;5.25;;;2.72;;
70301;SDS011;57706;56.326;43.882;2023-12-29T10:08:29;7.18;;;2.90;;
70301;SDS011;57706;56.326;43.882;2023-12-29T10:10:58;6.80;;;3.15;;
70301;SDS011;57706;56.326;43.882;2023-12-29T10:13:26;5.00;;;2.83;;
70301;SDS011;57706;56.326;43.882;2023-12-29T10:16:02;6.43;;;2.88;;
70301;SDS011;57706;56.326;43.882;2023-12-29T10:18:46;4.88;;;2.92;;
70301;SDS011;57706;56.326;43.882;2023-12-29T10:21:24;6.13;;;3.70;;
70301;SDS011;57706;56.326;43.882;2023-12-29T10:24:16;9.18;;;3.72;;
70301;SDS011;57706;56.326;43.882;2023-12-29T10:26:44;7.65;;;3.33;;
70301;SDS011;57706;56.326;43.882;2023-12-29T10:29:14;6.65;;;3.30;;
70301;SDS011;57706;56.326;43.882;2023-12-29T10:31:39;6.35;;;2.75;;
70301;SDS011;57706;56.326;43.882;2023-12-29T10:34:24;5.05;;;3.00;;
70301;SDS011;57706;56.326;43.882;2023-12-29T10:36:57;6.38;;;3.10;;
70301;SDS011;57706;56.326;43.882;2023-12-29T10:39:24;5.97;;;3.30;;
70301;SDS011;57706;56.326;43.882;2023-12-29T10:42:06;6.30;;;2.55;;
70301;SDS011;57706;56.326;43.882;2023-12-29T10:44:34;8.23;;;2.95;;
70301;SDS011;57706;56.326;43.882;2023-12-29T10:47:07;4.38;;;2.55;;
70301;SDS011;57706;56.326;43.882;2023-12-29T10:49:34;8.20;;;3.10;;
70301;SDS011;57706;56.326;43.882;2023-12-29T10:52:03;8.05;;;3.05;;
70301;SDS011;57706;56.326;43.882;2023-12-29T10:54:37;6.97;;;3.17;;
70301;SDS011;57706;56.326;43.882;2023-12-29T10:57:03;7.55;;;3.47;;
70301;SDS011;57706;56.326;43.882;2023-12-29T10:59:29;5.53;;;2.85;;
70301;SDS011;57706;56.326;43.882;2023-12-29T11:01:55;7.68;;;3.35;;
70301;SDS011;57706;56.326;43.882;2023-12-29T11:04:21;5.97;;;3.00;;
70301;SDS011;57706;56.326;43.882;2023-12-29T11:06:48;6.93;;;2.92;;
70301;SDS011;57706;56.326;43.882;2023-12-29T11:09:31;4.55;;;2.55;;
70301;SDS011;57706;56.326;43.882;2023-12-29T11:12:00;4.03;;;2.53;;
70301;SDS011;57706;56.326;43.882;2023-12-29T11:14:27;5.63;;;2.28;;
70301;SDS011;57706;56.326;43.882;2023-12-29T11:16:56;4.75;;;2.88;;
70301;SDS011;57706;56.326;43.882;2023-12-29T11:19:24;7.35;;;2.95;;
70301;SDS011;57706;56.326;43.882;2023-12-29T11:21:51;5.90;;;2.97;;
70301;SDS011;57706;56.326;43.882;2023-12-29T11:24:19;4.90;;;2.90;;
70301;SDS011;57706;56.326;43.882;2023-12-29T11:26:45;6.18;;;3.00;;
70301;SDS011;57706;56.326;43.882;2023-12-29T11:29:12;7.00;;;2.92;;
70301;SDS011;57706;56.326;43.882;2023-12-29T11:31:41;6.07;;;3.15;;
70301;SDS011;57706;56.326;43.882;2023-12-29T11:34:10;6.72;;;3.00;;
70301;SDS011;57706;56.326;43.882;2023-12-29T11:36:43;7.57;;;2.70;;
70301;SDS011;57706;56.326;43.882;2023-12-29T11:42:11;5.53;;;2.67;;
70301;SDS011;57706;56.326;43.882;2023-12-29T11:44:44;5.97;;;2.65;;
70301;SDS011;57706;56.326;43.882;2023-12-29T11:50:02;6.63;;;3.85;;
70301;SDS011;57706;56.326;43.882;2023-12-29T11:52:34;6.63;;;3.40;;
70301;SDS011;57706;56.326;43.882;2023-12-29T11:55:12;6.93;;;3.42;;
70301;SDS011;57706;56.326;43.882;2023-12-29T11:57:40;10.10;;;4.13;;
70301;SDS011;57706;56.326;43.882;2023-12-29T12:00:07;11.60;;;4.78;;
70301;SDS011;57706;56.326;43.882;2023-12-29T12:02:39;7.72;;;3.55;;
70301;SDS011;57706;56.326;43.882;2023-12-29T12:05:08;11.45;;;4.93;;
70301;SDS011;57706;56.326;43.882;2023-12-29T12:12:45;7.68;;;3.67;;
70301;SDS011;57706;56.326;43.882;2023-12-29T12:17:52;8.32;;;3.80;;
70301;SDS011;57706;56.326;43.882;2023-12-29T12:20:19;10.80;;;3.85;;
70301;SDS011;57706;56.326;43.882;2023-12-29T12:22:44;7.80;;;3.58;;
70301;SDS011;57706;56.326;43.882;2023-12-29T12:25:36;6.68;;;3.60;;
70301;SDS011;57706;56.326;43.882;2023-12-29T12:28:05;7.10;;;3.50;;
70301;SDS011;57706;56.326;43.882;2023-12-29T12:30:34;7.97;;;3.65;;
70301;SDS011;57706;56.326;43.882;2023-12-29T12:33:01;9.32;;;4.18;;
70301;SDS011;57706;56.326;43.882;2023-12-29T12:35:29;13.88;;;4.28;;
70301;SDS011;57706;56.326;43.882;2023-12-29T12:40:34;8.02;;;3.85;;
70301;SDS011;57706;56.326;43.882;2023-12-29T12:43:01;10.70;;;3.75;;
70301;SDS011;57706;56.326;43.882;2023-12-29T12:45:28;6.60;;;3.67;;
70301;SDS011;57706;56.326;43.882;2023-12-29T12:50:49;7.80;;;3.95;;
70301;SDS011;57706;56.326;43.882;2023-12-29T12:53:15;13.63;;;5.80;;
70301;SDS011;57706;56.326;43.882;2023-12-29T12:55:49;10.10;;;5.55;;
70301;SDS011;57706;56.326;43.882;2023-12-29T12:58:19;11.57;;;5.03;;
70301;SDS011;57706;56.326;43.882;2023-12-29T13:00:48;10.50;;;6.15;;
70301;SDS011;57706;56.326;43.882;2023-12-29T13:03:15;11.50;;;5.95;;
70301;SDS011;57706;56.326;43.882;2023-12-29T13:05:41;12.43;;;5.85;;
70301;SDS011;57706;56.326;43.882;2023-12-29T13:08:07;12.57;;;5.78;;
70301;SDS011;57706;56.326;43.882;2023-12-29T13:10:33;10.77;;;5.32;;
70301;SDS011;57706;56.326;43.882;2023-12-29T13:13:05;10.85;;;5.80;;
70301;SDS011;57706;56.326;43.882;2023-12-29T13:15:31;12.65;;;5.93;;
70301;SDS011;57706;56.326;43.882;2023-12-29T13:17:56;12.23;;;4.82;;
70301;SDS011;57706;56.326;43.882;2023-12-29T13:20:22;10.63;;;4.85;;
70301;SDS011;57706;56.326;43.882;2023-12-29T13:22:49;14.60;;;6.00;;
70301;SDS011;57706;56.326;43.882;2023-12-29T13:25:21;11.65;;;5.82;;
70301;SDS011;57706;56.326;43.882;2023-12-29T13:27:52;9.48;;;5.47;;
70301;SDS011;57706;56.326;43.882;2023-12-29T13:30:19;10.52;;;5.95;;
70301;SDS011;57706;56.326;43.882;2023-12-29T13:32:46;19.38;;;6.97;;
70301;SDS011;57706;56.326;43.882;2023-12-29T13:35:18;16.70;;;8.30;;
70301;SDS011;57706;56.326;43.882;2023-12-29T13:37:55;11.15;;;5.22;;
70301;SDS011;57706;56.326;43.882;2023-12-29T13:40:38;10.77;;;5.60;;
70301;SDS011;57706;56.326;43.882;2023-12-29T13:43:28;10.95;;;5.28;;
70301;SDS011;57706;56.326;43.882;2023-12-29T13:45:58;13.50;;;5.45;;
70301;SDS011;57706;56.326;43.882;2023-12-29T13:48:25;10.75;;;5.18;;
70301;SDS011;57706;56.326;43.882;2023-12-29T13:50:52;9.65;;;4.60;;
70301;SDS011;57706;56.326;43.882;2023-12-29T13:53:18;10.30;;;5.43;;
70301;SDS011;57706;56.326;43.882;2023-12-29T13:55:45;11.43;;;5.68;;
70301;SDS011;57706;56.326;43.882;2023-12-29T13:58:11;11.93;;;5.90;;
70301;SDS011;57706;56.326;43.882;2023-12-29T14:00:39;12.70;;;6.22;;
70301;SDS011;57706;56.326;43.882;2023-12-29T14:03:06;11.68;;;5.40;;
70301;SDS011;57706;56.326;43.882;2023-12-29T14:08:33;11.75;;;5.40;;
70301;SDS011;57706;56.326;43.882;2023-12-29T14:11:08;11.90;;;5.15;;
70301;SDS011;57706;56.326;43.882;2023-12-29T14:13:35;10.77;;;5.00;;
70301;SDS011;57706;56.326;43.882;2023-12-29T14:16:06;12.35;;;5.97;;
70301;SDS011;57706;56.326;43.882;2023-12-29T14:21:20;11.50;;;5.32;;
70301;SDS011;57706;56.326;43.882;2023-12-29T14:29:24;15.88;;;6.55;;
70301;SDS011;57706;56.326;43.882;2023-12-29T14:31:51;10.88;;;5.68;;
70301;SDS011;57706;56.326;43.882;2023-12-29T14:34:17;11.35;;;5.85;;
70301;SDS011;57706;56.326;43.882;2023-12-29T14:36:44;13.55;;;6.43;;
70301;SDS011;57706;56.326;43.882;2023-12-29T14:39:11;13.10;;;7.25;;
70301;SDS011;57706;56.326;43.882;2023-12-29T14:41:38;14.95;;;6.68;;
70301;SDS011;57706;56.326;43.882;2023-12-29T14:44:04;15.60;;;7.30;;
70301;SDS011;57706;56.326;43.882;2023-12-29T14:46:30;15.65;;;8.27;;
70301;SDS011;57706;56.326;43.882;2023-12-29T14:48:58;15.18;;;7.80;;
70301;SDS011;57706;56.326;43.882;2023-12-29T14:51:24;17.02;;;8.23;;
70301;SDS011;57706;56.326;43.882;2023-12-29T14:53:50;15.82;;;7.88;;
70301;SDS011;57706;56.326;43.882;2023-12-29T14:56:16;16.73;;;7.32;;
70301;SDS011;57706;56.326;43.882;2023-12-29T14:58:43;13.82;;;7.65;;
70301;SDS011;57706;56.326;43.882;2023-12-29T15:01:09;16.70;;;7.63;;
70301;SDS011;57706;56.326;43.882;2023-12-29T15:03:35;13.25;;;6.13;;
70301;SDS011;57706;56.326;43.882;2023-12-29T15:06:02;15.25;;;7.15;;
70301;SDS011;57706;56.326;43.882;2023-12-29T15:08:29;17.02;;;7.72;;
70301;SDS011;57706;56.326;43.882;2023-12-29T15:11:03;13.27;;;6.72;;
70301;SDS011;57706;56.326;43.882;2023-12-29T15:13:30;15.40;;;6.93;;
70301;SDS011;57706;56.326;43.882;2023-12-29T15:15:59;15.02;;;7.35;;
70301;SDS011;57706;56.326;43.882;2023-12-29T15:18:27;17.05;;;7.53;;
70301;SDS011;57706;56.326;43.882;2023-12-29T15:20:55;17.80;;;7.68;;
70301;SDS011;57706;56.326;43.882;2023-12-29T15:23:21;15.00;;;7.40;;
70301;SDS011;57706;56.326;43.882;2023-12-29T15:25:48;16.00;;;7.10;;
70301;SDS011;57706;56.326;43.882;2023-12-29T15:28:15;15.63;;;7.32;;
70301;SDS011;57706;56.326;43.882;2023-12-29T15:30:42;13.90;;;7.22;;
70301;SDS011;57706;56.326;43.882;2023-12-29T15:33:09;11.32;;;5.82;;
70301;SDS011;57706;56.326;43.882;2023-12-29T15:35:35;14.43;;;7.55;;
70301;SDS011;57706;56.326;43.882;2023-12-29T15:38:00;14.75;;;6.75;;